KMOR/MOR METAR and TAF weather

Enter ICAO airport designator
Station Type Date Time Source
KMOR METAR 2020/09/23 00:55 UTC NOAA

KMOR 230055Z AUTO 00000KT 10SM CLR 15/12 A3015 RMK A01


Station Type Date Time Source
KMOR Decoded METAR 2020/09/23 00:55 UTC NOAA

Station name not available
Sep 22, 2020 - 08:55 PM EDT / 2020.09.23 0055 UTC
Wind: Calm:0
Visibility: 10 mile(s):0
Sky conditions: clear
Temperature: 59 F (15 C)
Dew Point: 53 F (12 C)
Relative Humidity: 82%
Pressure (altimeter): 30.15 in. Hg (1020 hPa)
ob: KMOR 230055Z AUTO 00000KT 10SM CLR 15/12 A3015 RMK A01
cycle: 1

Station Type Date Time Source
KMOR TAF UTC NOAA

Error!

Example: see airport list